Time;durP1;ratioP1;P1;durP2;ratioP2;P2;SDS_P1;SDS_P2;PMS_P1;PMS_P2;Temp;Humidity;BMP_temperature;BMP_pressure;BME280_temperature;BME280_humidity;BME280_pressure;Samples;Min_cycle;Max_cycle;Signal;HPM_P1;HPM_P2
2023/11/22 00:00:03;;;;;;;4.90;1.98;;;;;;;-0.91;57.55;102874.97;5029321;28;20442;-71
2023/11/22 00:02:34;;;;;;;3.20;1.30;;;;;;;-0.83;58.26;102877.84;5026247;28;20047;-71
2023/11/22 00:05:00;;;;;;;3.22;1.77;;;;;;;-0.66;58.74;102876.81;5012337;28;20037;-71
2023/11/22 00:07:28;;;;;;;5.28;1.40;;;;;;;-0.61;58.49;102870.16;5023292;28;20049;-70
2023/11/22 00:09:55;;;;;;;3.05;1.65;;;;;;;-0.55;57.59;102872.06;5033230;28;20112;-70
2023/11/22 00:12:20;;;;;;;4.13;1.77;;;;;;;-0.58;57.95;102869.41;5028715;28;20048;-70
2023/11/22 00:14:47;;;;;;;2.97;1.38;;;;;;;-0.57;57.61;102869.47;5031929;28;20423;-72
2023/11/22 00:17:13;;;;;;;6.53;1.45;;;;;;;-0.60;58.22;102877.03;5037405;28;20118;-72
2023/11/22 00:19:38;;;;;;;3.65;1.65;;;;;;;-0.52;58.52;102879.91;5030277;28;20029;-73
2023/11/22 00:22:13;;;;;;;3.05;1.50;;;;;;;-0.40;58.23;102884.63;5035112;28;20411;-73
2023/11/22 00:24:42;;;;;;;3.10;1.10;;;;;;;-0.41;57.73;102891.47;5031786;28;20123;-71
2023/11/22 00:27:08;;;;;;;3.92;1.80;;;;;;;-0.39;58.43;102896.69;5030371;28;20037;-73
2023/11/22 00:29:34;;;;;;;5.20;1.95;;;;;;;-0.33;58.07;102896.88;5009833;28;20036;-72
2023/11/22 00:32:00;;;;;;;2.80;1.13;;;;;;;-0.27;57.80;102903.97;5031812;28;20025;-72
2023/11/22 00:34:26;;;;;;;3.50;1.75;;;;;;;-0.29;57.78;102905.59;5042095;28;21253;-70
2023/11/22 00:36:52;;;;;;;4.13;1.00;;;;;;;-0.38;57.28;102903.56;5028684;28;20052;-69
2023/11/22 00:39:17;;;;;;;2.30;1.00;;;;;;;-0.49;57.33;102907.41;5027875;28;20064;-69
2023/11/22 00:41:46;;;;;;;2.58;1.15;;;;;;;-0.57;57.21;102912.25;5031562;28;20114;-70
2023/11/22 00:44:12;;;;;;;3.10;0.95;;;;;;;-0.61;57.23;102910.38;5031114;28;20622;-70
2023/11/22 00:46:37;;;;;;;2.90;0.90;;;;;;;-0.68;57.40;102903.22;5031510;28;20169;-70
2023/11/22 00:49:04;;;;;;;4.32;1.13;;;;;;;-0.79;57.63;102897.69;5034950;28;20427;-69
2023/11/22 00:51:33;;;;;;;2.22;1.10;;;;;;;-0.81;57.73;102897.63;5036465;28;21836;-70
2023/11/22 00:53:59;;;;;;;4.57;1.33;;;;;;;-0.81;57.69;102894.19;5026140;28;20407;-70
2023/11/22 00:56:25;;;;;;;8.23;1.73;;;;;;;-0.86;57.62;102903.38;5030406;28;20585;-70
2023/11/22 00:58:50;;;;;;;3.28;1.05;;;;;;;-0.84;57.45;102904.31;5023431;28;20033;-70
2023/11/22 01:01:18;;;;;;;7.93;1.75;;;;;;;-0.93;57.88;102909.09;5029755;28;20032;-71
2023/11/22 01:03:43;;;;;;;2.08;0.70;;;;;;;-0.87;57.98;102917.03;5030017;28;20534;-71
2023/11/22 01:06:09;;;;;;;3.55;1.10;;;;;;;-0.84;57.47;102923.19;5031319;28;20021;-70
2023/11/22 01:08:35;;;;;;;4.60;1.75;;;;;;;-0.90;57.38;102929.78;5027411;28;20499;-70
2023/11/22 01:11:03;;;;;;;2.42;1.60;;;;;;;-0.99;57.69;102937.97;5031739;28;20522;-71
2023/11/22 01:13:29;;;;;;;2.20;1.10;;;;;;;-1.02;57.74;102941.28;5024654;28;20055;-71
2023/11/22 01:15:55;;;;;;;2.88;1.20;;;;;;;-1.08;57.61;102942.69;5032437;28;20450;-73
2023/11/22 01:18:21;;;;;;;3.05;1.08;;;;;;;-1.06;57.65;102947.09;5026667;28;20056;-73
2023/11/22 01:20:47;;;;;;;2.63;1.00;;;;;;;-1.09;57.39;102941.78;5029348;28;20028;-73
2023/11/22 01:23:14;;;;;;;4.57;1.52;;;;;;;-1.07;57.51;102942.75;5025743;28;20135;-73
2023/11/22 01:25:39;;;;;;;2.00;0.98;;;;;;;-1.18;57.71;102943.97;5030138;28;20025;-74
2023/11/22 01:28:06;;;;;;;2.55;1.45;;;;;;;-1.17;57.45;102945.75;5021233;28;20049;-74
2023/11/22 01:30:32;;;;;;;4.70;1.50;;;;;;;-1.24;57.46;102951.41;5026583;28;20036;-73
2023/11/22 01:32:58;;;;;;;3.28;1.30;;;;;;;-1.38;57.56;102944.00;5031390;28;20041;-71
2023/11/22 01:35:24;;;;;;;2.92;1.48;;;;;;;-1.46;57.54;102939.38;5026804;28;20731;-70
2023/11/22 01:37:50;;;;;;;3.33;1.45;;;;;;;-1.46;57.67;102930.00;5028644;28;20477;-70
2023/11/22 01:40:16;;;;;;;3.33;1.13;;;;;;;-1.51;57.62;102930.59;5027735;28;20036;-71
2023/11/22 01:42:42;;;;;;;3.95;1.83;;;;;;;-1.60;57.78;102936.19;5029439;28;20052;-71
2023/11/22 01:45:08;;;;;;;5.93;2.20;;;;;;;-1.57;57.86;102935.47;5013081;28;20040;-70
2023/11/22 01:47:36;;;;;;;2.70;1.27;;;;;;;-1.63;57.70;102941.19;5025806;28;20075;-70
2023/11/22 01:50:05;;;;;;;5.18;1.75;;;;;;;-1.63;57.61;102939.50;5030302;28;20032;-70
2023/11/22 01:52:31;;;;;;;3.45;1.92;;;;;;;-1.67;57.79;102935.06;5028333;28;20474;-71
2023/11/22 01:54:57;;;;;;;2.80;1.10;;;;;;;-1.68;57.75;102937.56;5010713;28;20497;-70
2023/11/22 01:57:23;;;;;;;3.55;1.13;;;;;;;-1.73;57.77;102932.25;5027896;28;20067;-70
2023/11/22 01:59:48;;;;;;;3.28;1.30;;;;;;;-1.73;58.01;102924.53;5028897;28;20071;-70
2023/11/22 02:02:14;;;;;;;3.00;1.42;;;;;;;-1.64;58.00;102929.19;5011848;28;20036;-71
2023/11/22 02:04:39;;;;;;;4.30;1.45;;;;;;;-1.67;57.78;102926.47;5011536;28;20052;-77
2023/11/22 02:07:05;;;;;;;4.22;1.60;;;;;;;-1.69;57.76;102921.28;5032162;28;20041;-75
2023/11/22 02:09:31;;;;;;;1.60;0.73;;;;;;;-1.76;57.71;102918.41;5007426;28;20118;-72
2023/11/22 02:11:57;;;;;;;2.58;1.42;;;;;;;-1.86;57.45;102915.44;5019481;28;20068;-74
2023/11/22 02:14:23;;;;;;;3.95;1.55;;;;;;;-1.94;57.79;102919.31;5026902;28;20063;-74
2023/11/22 02:16:50;;;;;;;5.15;2.00;;;;;;;-1.94;57.80;102913.34;5028077;28;20082;-74
2023/11/22 02:19:17;;;;;;;4.95;1.50;;;;;;;-1.97;57.70;102923.47;5018560;28;20048;-73
2023/11/22 02:21:43;;;;;;;4.68;1.40;;;;;;;-2.02;58.25;102915.56;5027821;28;20037;-72
2023/11/22 02:24:09;;;;;;;4.35;2.47;;;;;;;-2.10;58.33;102916.91;5013125;28;20049;-67
2023/11/22 02:26:36;;;;;;;3.15;1.17;;;;;;;-2.08;58.33;102920.41;5027449;28;20132;-68
2023/11/22 02:29:06;;;;;;;5.57;1.50;;;;;;;-2.12;58.26;102911.69;5025645;28;20025;-68
2023/11/22 02:31:33;;;;;;;3.92;0.93;;;;;;;-2.17;58.65;102920.00;5023490;28;20029;-68
2023/11/22 02:33:59;;;;;;;3.25;1.75;;;;;;;-2.18;58.90;102913.09;5026598;28;20040;-69
2023/11/22 02:36:25;;;;;;;3.97;1.63;;;;;;;-2.17;58.99;102920.00;5025317;28;20400;-67
2023/11/22 02:38:51;;;;;;;3.17;1.52;;;;;;;-2.11;58.68;102920.25;5010464;28;20124;-68
2023/11/22 02:41:16;;;;;;;5.15;1.50;;;;;;;-2.10;58.92;102925.44;5028399;28;20131;-67
2023/11/22 02:43:42;;;;;;;2.50;1.45;;;;;;;-2.07;58.56;102927.28;5028007;28;20044;-68
2023/11/22 02:46:10;;;;;;;4.70;2.03;;;;;;;-2.10;58.27;102930.56;5021056;28;20056;-68
2023/11/22 02:48:37;;;;;;;4.57;1.83;;;;;;;-2.12;58.37;102926.19;5024975;28;20116;-68
2023/11/22 02:51:02;;;;;;;2.65;1.50;;;;;;;-2.03;58.70;102940.28;5027043;28;20116;-68
2023/11/22 02:53:29;;;;;;;3.58;1.70;;;;;;;-1.98;58.65;102932.81;5022529;28;20127;-67
2023/11/22 02:55:58;;;;;;;3.63;1.35;;;;;;;-1.96;58.30;102940.56;5026071;28;20036;-68
2023/11/22 02:58:24;;;;;;;6.07;2.05;;;;;;;-2.04;58.35;102938.56;5026339;28;20057;-67
2023/11/22 03:00:49;;;;;;;2.95;0.88;;;;;;;-2.04;58.07;102937.69;5029119;28;20078;-68
2023/11/22 03:03:15;;;;;;;3.40;1.50;;;;;;;-2.09;58.21;102944.25;5031604;28;20059;-66
2023/11/22 03:05:40;;;;;;;7.65;1.73;;;;;;;-2.16;58.17;102957.59;5012679;28;20025;-67
2023/11/22 03:08:07;;;;;;;4.07;1.40;;;;;;;-2.17;58.08;102959.28;5012600;28;20053;-67
2023/11/22 03:10:35;;;;;;;4.13;1.55;;;;;;;-2.23;58.33;102967.56;5043294;28;20131;-70
2023/11/22 03:13:00;;;;;;;3.00;1.02;;;;;;;-2.27;58.10;102973.38;5012850;28;20032;-70
2023/11/22 03:15:26;;;;;;;3.40;1.20;;;;;;;-2.35;58.34;102982.38;5026671;28;20202;-70
2023/11/22 03:17:52;;;;;;;2.33;1.27;;;;;;;-2.37;58.48;102995.91;5025789;28;20128;-71
2023/11/22 03:20:17;;;;;;;5.80;1.88;;;;;;;-2.39;58.46;103000.06;5029656;28;20032;-72
2023/11/22 03:22:44;;;;;;;3.85;1.55;;;;;;;-2.44;58.54;103004.97;5026088;28;20055;-72
2023/11/22 03:25:10;;;;;;;3.58;1.40;;;;;;;-2.39;58.22;103003.50;5029955;28;20048;-71
2023/11/22 03:27:37;;;;;;;4.35;1.40;;;;;;;-2.35;58.65;103002.84;5016980;28;20098;-71
2023/11/22 03:30:03;;;;;;;13.02;1.90;;;;;;;-2.32;58.73;103005.56;5028383;28;20484;-72
2023/11/22 03:32:29;;;;;;;6.53;1.67;;;;;;;-2.33;58.72;103010.63;5026030;28;20175;-72
2023/11/22 03:34:55;;;;;;;4.45;1.80;;;;;;;-2.32;58.40;103018.34;5029933;28;20120;-73
2023/11/22 03:37:20;;;;;;;3.13;1.77;;;;;;;-2.30;58.51;103006.50;5027243;28;20888;-72
2023/11/22 03:39:48;;;;;;;4.97;1.85;;;;;;;-2.32;58.44;102992.75;5028346;28;20044;-72
2023/11/22 03:42:16;;;;;;;5.32;2.35;;;;;;;-2.40;58.60;102983.84;5026760;28;20069;-72
2023/11/22 03:44:43;;;;;;;4.38;1.52;;;;;;;-2.44;58.51;102981.94;5024855;28;20350;-72
2023/11/22 03:47:11;;;;;;;3.15;1.58;;;;;;;-2.46;58.94;102978.41;5028430;28;20047;-72
2023/11/22 03:49:36;;;;;;;4.63;1.90;;;;;;;-2.48;59.21;102974.91;5023180;28;20028;-72
2023/11/22 03:52:02;;;;;;;2.90;1.50;;;;;;;-2.48;59.29;102970.66;5028061;28;20033;-72
2023/11/22 03:54:28;;;;;;;5.03;2.10;;;;;;;-2.44;59.14;102966.56;5025690;28;20041;-72
2023/11/22 03:56:53;;;;;;;5.57;2.60;;;;;;;-2.43;59.18;102969.19;5028242;28;20067;-72
2023/11/22 03:59:19;;;;;;;6.45;2.53;;;;;;;-2.39;59.83;102953.97;5029600;28;20041;-70
2023/11/22 04:01:44;;;;;;;6.05;2.10;;;;;;;-2.21;59.22;102954.81;5025002;28;20514;-68
2023/11/22 04:04:10;;;;;;;5.45;2.47;;;;;;;-2.15;59.06;102955.13;5029079;28;20632;-71
2023/11/22 04:06:36;;;;;;;5.95;3.45;;;;;;;-2.12;59.11;102970.63;5025833;28;20040;-71
2023/11/22 04:09:01;;;;;;;3.17;1.80;;;;;;;-2.06;59.01;102970.03;5024881;28;20117;-71
2023/11/22 04:11:29;;;;;;;3.88;1.80;;;;;;;-2.07;58.81;102974.31;5025585;28;20037;-72
2023/11/22 04:13:55;;;;;;;6.38;1.92;;;;;;;-2.12;58.54;102975.75;5028002;28;20119;-71
2023/11/22 04:16:20;;;;;;;5.75;1.70;;;;;;;-2.22;58.54;102969.31;5030704;28;20029;-72
2023/11/22 04:18:46;;;;;;;8.15;2.63;;;;;;;-2.34;58.75;102953.38;5022638;28;20574;-71
2023/11/22 04:21:11;;;;;;;3.65;2.13;;;;;;;-2.30;58.81;102959.53;5029059;28;20064;-70
2023/11/22 04:23:37;;;;;;;4.13;2.40;;;;;;;-2.27;58.82;102960.56;5025221;28;20133;-71
2023/11/22 04:26:03;;;;;;;6.30;2.03;;;;;;;-2.18;58.94;102979.72;5027875;28;20046;-71
2023/11/22 04:28:29;;;;;;;7.70;2.17;;;;;;;-2.19;58.76;102977.97;5024559;28;20307;-72
2023/11/22 04:30:55;;;;;;;4.40;2.28;;;;;;;-2.40;58.44;102973.59;5030173;28;20738;-70
2023/11/22 04:33:20;;;;;;;5.47;2.17;;;;;;;-2.44;58.74;102975.13;5028839;28;20165;-71
2023/11/22 04:35:50;;;;;;;5.80;2.60;;;;;;;-2.36;58.42;102979.72;5027858;28;20049;-70
2023/11/22 04:38:15;;;;;;;6.50;2.65;;;;;;;-2.36;58.57;102990.84;4994486;28;20045;-71
2023/11/22 04:40:42;;;;;;;3.67;2.17;;;;;;;-2.43;58.24;103006.72;5020611;28;20028;-72
2023/11/22 04:43:08;;;;;;;3.75;2.13;;;;;;;-2.45;58.43;102998.09;5027264;28;20044;-71
2023/11/22 04:45:34;;;;;;;5.45;2.15;;;;;;;-2.40;58.56;103012.00;5028194;28;20245;-72
2023/11/22 04:48:00;;;;;;;4.15;2.33;;;;;;;-2.49;58.66;103011.53;5025517;28;20070;-67
2023/11/22 04:50:25;;;;;;;7.75;2.55;;;;;;;-2.53;58.62;103022.47;5010782;28;20440;-68
2023/11/22 04:52:51;;;;;;;5.38;2.33;;;;;;;-2.52;58.52;103019.97;5029276;28;20504;-68
2023/11/22 04:55:17;;;;;;;5.00;2.42;;;;;;;-2.64;58.90;103015.13;5030167;28;20040;-70
2023/11/22 04:57:43;;;;;;;4.03;1.55;;;;;;;-2.69;59.05;103015.72;5028499;28;20048;-68
2023/11/22 05:00:09;;;;;;;3.35;1.55;;;;;;;-2.68;59.45;103012.34;5031109;28;20458;-70
2023/11/22 05:02:35;;;;;;;7.97;2.70;;;;;;;-2.64;59.60;103002.31;5027638;28;20057;-68
2023/11/22 05:05:00;;;;;;;7.45;2.35;;;;;;;-2.55;59.59;102994.22;5030290;28;20628;-69
2023/11/22 05:07:26;;;;;;;6.38;2.30;;;;;;;-2.55;59.48;102983.97;5031130;28;20063;-69
2023/11/22 05:09:51;;;;;;;6.35;2.90;;;;;;;-2.48;59.77;102968.09;5026391;28;20094;-69
2023/11/22 05:12:17;;;;;;;7.35;3.15;;;;;;;-2.46;59.93;102973.28;5028475;28;20116;-68
2023/11/22 05:14:46;;;;;;;6.45;3.47;;;;;;;-2.42;59.97;102972.63;5029877;28;20289;-70
2023/11/22 05:17:14;;;;;;;4.88;2.88;;;;;;;-2.42;60.06;102964.97;5028423;28;20017;-71
2023/11/22 05:19:39;;;;;;;5.35;2.58;;;;;;;-2.40;59.81;102965.00;5028245;28;20079;-71
2023/11/22 05:22:05;;;;;;;7.60;3.13;;;;;;;-2.43;60.15;102964.06;5027977;28;20033;-71
2023/11/22 05:24:30;;;;;;;8.05;3.33;;;;;;;-2.37;60.08;102966.03;5027737;28;20111;-72
2023/11/22 05:26:57;;;;;;;8.07;3.78;;;;;;;-2.36;60.06;102967.78;5029902;28;20044;-72
2023/11/22 05:29:22;;;;;;;9.75;3.55;;;;;;;-2.35;59.99;102974.69;5033704;28;20056;-70
2023/11/22 05:31:48;;;;;;;5.72;2.83;;;;;;;-2.35;59.92;102971.25;5031483;28;20054;-71
2023/11/22 05:34:13;;;;;;;4.07;2.85;;;;;;;-2.31;59.51;102983.38;5015849;28;20178;-74
2023/11/22 05:36:40;;;;;;;5.28;3.63;;;;;;;-2.30;59.69;102980.88;5030406;28;20296;-77
2023/11/22 05:39:06;;;;;;;6.40;3.80;;;;;;;-2.33;59.50;102985.88;5031496;28;20100;-78
2023/11/22 05:41:31;;;;;;;9.88;4.25;;;;;;;-2.33;59.43;102985.88;5029683;28;20048;-77
2023/11/22 05:43:58;;;;;;;7.93;3.30;;;;;;;-2.32;59.50;102994.44;5030517;28;20446;-77
2023/11/22 05:46:24;;;;;;;7.18;3.78;;;;;;;-2.34;59.98;102996.03;5017067;28;20082;-76
2023/11/22 05:48:54;;;;;;;7.05;3.22;;;;;;;-2.33;60.14;103000.38;5027022;28;20161;-76
2023/11/22 05:51:19;;;;;;;8.25;3.90;;;;;;;-2.31;60.07;102998.75;5032951;28;20036;-74
2023/11/22 05:53:45;;;;;;;8.07;4.43;;;;;;;-2.29;60.40;102998.03;5026941;28;20048;-74
2023/11/22 05:56:11;;;;;;;11.60;3.72;;;;;;;-2.23;60.04;102998.28;5028915;28;20032;-73
2023/11/22 05:58:38;;;;;;;7.38;4.00;;;;;;;-2.26;59.97;102990.47;5028636;28;20047;-71
2023/11/22 06:01:05;;;;;;;9.23;4.45;;;;;;;-2.22;60.13;102997.50;5030472;28;20518;-72
2023/11/22 06:03:31;;;;;;;9.40;4.55;;;;;;;-2.18;60.23;102997.63;5030362;28;20271;-73
2023/11/22 06:05:57;;;;;;;7.88;4.00;;;;;;;-2.16;60.44;102988.34;5028851;28;20560;-72
2023/11/22 06:08:23;;;;;;;11.90;4.63;;;;;;;-2.15;60.02;103000.38;5029184;28;20136;-74
2023/11/22 06:10:48;;;;;;;9.02;3.85;;;;;;;-2.11;60.32;102992.91;5028483;28;20042;-71
2023/11/22 06:13:14;;;;;;;8.80;4.20;;;;;;;-2.10;60.57;102994.63;5029787;28;20068;-71
2023/11/22 06:15:40;;;;;;;10.38;3.95;;;;;;;-2.03;60.31;103000.91;5024434;28;20541;-74
2023/11/22 06:18:06;;;;;;;9.75;4.43;;;;;;;-1.96;60.34;103013.22;5014900;28;20516;-74
2023/11/22 06:20:31;;;;;;;14.93;5.43;;;;;;;-1.89;60.00;103015.28;5031189;28;20037;-72
2023/11/22 06:22:57;;;;;;;9.95;4.10;;;;;;;-1.84;60.11;103013.78;5029388;28;20407;-71
2023/11/22 06:25:22;;;;;;;10.40;5.43;;;;;;;-1.82;60.26;103012.19;5030707;28;20120;-71
2023/11/22 06:27:47;;;;;;;12.90;4.95;;;;;;;-1.78;60.32;103013.19;5026046;28;20052;-72
2023/11/22 06:30:14;;;;;;;10.68;5.53;;;;;;;-1.69;60.25;103012.72;5030376;28;20032;-70
2023/11/22 06:32:42;;;;;;;9.95;5.72;;;;;;;-1.76;59.89;103026.06;5023083;28;20056;-72
2023/11/22 06:35:09;;;;;;;16.00;5.18;;;;;;;-1.77;59.96;103025.19;5020441;28;20029;-69
2023/11/22 06:37:35;;;;;;;10.77;5.80;;;;;;;-1.72;60.00;103033.09;5025118;28;20053;-69
2023/11/22 06:40:01;;;;;;;11.88;5.63;;;;;;;-1.71;60.09;103030.63;5028161;28;20037;-70
2023/11/22 06:42:27;;;;;;;8.65;4.50;;;;;;;-1.74;60.19;103032.16;5023309;28;20127;-73
2023/11/22 06:44:53;;;;;;;11.52;5.55;;;;;;;-1.70;59.87;103037.50;5042016;28;20041;-69
2023/11/22 06:47:19;;;;;;;11.27;5.85;;;;;;;-1.73;59.94;103029.66;5024850;28;20059;-70
2023/11/22 06:49:46;;;;;;;10.23;5.10;;;;;;;-1.62;60.05;103032.69;5022682;28;20260;-70
2023/11/22 06:52:12;;;;;;;9.35;5.40;;;;;;;-1.61;59.95;103029.34;5028210;28;20489;-70
2023/11/22 06:54:38;;;;;;;12.43;5.95;;;;;;;-1.66;60.00;103030.81;5001833;28;20562;-70
2023/11/22 06:57:04;;;;;;;10.82;5.22;;;;;;;-1.56;60.13;103030.41;5019328;28;20119;-71
2023/11/22 06:59:29;;;;;;;9.98;5.30;;;;;;;-1.53;60.22;103029.66;5027755;28;20375;-71
2023/11/22 07:01:57;;;;;;;10.73;4.68;;;;;;;-1.52;60.31;103032.31;5031961;28;20996;-69
2023/11/22 07:04:23;;;;;;;10.20;5.38;;;;;;;-1.45;60.41;103034.34;5016969;28;20056;-70
2023/11/22 07:06:49;;;;;;;8.35;5.15;;;;;;;-1.42;60.30;103038.72;5026414;28;20078;-70
2023/11/22 07:09:15;;;;;;;10.88;5.22;;;;;;;-1.42;59.79;103031.94;5023047;28;20479;-70
2023/11/22 07:11:41;;;;;;;9.35;5.55;;;;;;;-1.50;59.73;103029.81;5024693;28;20036;-72
2023/11/22 07:14:07;;;;;;;12.00;4.85;;;;;;;-1.50;60.02;103017.88;5027564;28;20076;-70
2023/11/22 07:16:33;;;;;;;11.77;6.03;;;;;;;-1.53;60.40;103015.19;5026972;28;20088;-69
2023/11/22 07:19:02;;;;;;;12.23;6.57;;;;;;;-1.52;60.30;103016.06;5026124;28;20350;-71
2023/11/22 07:21:30;;;;;;;12.93;5.95;;;;;;;-1.47;60.22;103007.72;5016103;28;20046;-68
2023/11/22 07:23:55;;;;;;;11.63;5.32;;;;;;;-1.47;60.05;102997.47;5025304;28;21313;-70
2023/11/22 07:26:21;;;;;;;17.70;7.32;;;;;;;-1.52;60.04;103001.53;5028832;28;20040;-72
2023/11/22 07:28:47;;;;;;;11.43;6.10;;;;;;;-1.54;59.99;103013.41;5003613;28;20454;-69
2023/11/22 07:31:13;;;;;;;10.13;5.40;;;;;;;-1.49;60.10;103022.19;5027013;28;20671;-68
2023/11/22 07:33:39;;;;;;;11.50;6.03;;;;;;;-1.50;60.47;103024.69;5022812;28;20131;-69
2023/11/22 07:36:06;;;;;;;9.07;4.85;;;;;;;-1.35;60.27;103029.59;5029359;28;20371;-68
2023/11/22 07:38:31;;;;;;;10.30;5.55;;;;;;;-1.31;60.34;103034.06;5024730;28;20082;-68
2023/11/22 07:40:58;;;;;;;14.52;6.25;;;;;;;-1.31;60.31;103027.25;5025073;28;21297;-67
2023/11/22 07:43:24;;;;;;;8.23;5.00;;;;;;;-1.24;60.03;103033.53;5025102;28;20041;-66
2023/11/22 07:45:50;;;;;;;10.55;5.63;;;;;;;-1.30;59.89;103048.66;5025015;28;20220;-68
2023/11/22 07:48:17;;;;;;;9.82;5.18;;;;;;;-1.28;59.63;103057.31;5008636;28;20045;-68
2023/11/22 07:50:43;;;;;;;12.43;5.53;;;;;;;-1.25;60.26;103067.69;5038582;28;20078;-69
2023/11/22 07:53:13;;;;;;;9.70;5.55;;;;;;;-1.36;60.24;103062.09;5029119;28;20039;-72
2023/11/22 07:55:39;;;;;;;10.98;5.63;;;;;;;-1.30;60.25;103048.66;5027426;28;20040;-72
2023/11/22 07:58:07;;;;;;;11.77;6.13;;;;;;;-1.18;59.93;103060.31;5018620;28;20569;-72
2023/11/22 08:00:36;;;;;;;19.95;6.63;;;;;;;-1.07;59.74;103057.38;5025354;28;20036;-67
2023/11/22 08:03:03;;;;;;;13.88;6.68;;;;;;;-0.98;59.72;103063.78;5025033;28;20073;-71
2023/11/22 08:05:36;;;;;;;13.55;5.93;;;;;;;-0.95;59.40;103082.72;5025775;28;20158;-71
2023/11/22 08:08:08;;;;;;;13.73;6.60;;;;;;;-0.94;59.25;103090.50;5023117;28;20045;-70
2023/11/22 08:10:37;;;;;;;11.80;5.60;;;;;;;-0.89;59.57;103080.41;5040093;28;20159;-71
2023/11/22 08:13:03;;;;;;;12.38;7.25;;;;;;;-1.13;60.01;103063.09;5027706;28;20049;-70
2023/11/22 08:15:31;;;;;;;10.40;5.90;;;;;;;-0.94;59.52;103053.69;5026081;28;20037;-68
2023/11/22 08:18:00;;;;;;;13.25;6.53;;;;;;;-0.88;59.32;103049.69;5021804;28;20119;-69
2023/11/22 08:20:26;;;;;;;15.02;7.30;;;;;;;-0.86;59.49;103063.47;5019382;28;20500;-67
2023/11/22 08:22:51;;;;;;;12.57;6.60;;;;;;;-0.78;59.37;103066.34;5021467;28;20052;-67
2023/11/22 08:25:18;;;;;;;13.80;7.25;;;;;;;-0.72;59.13;103051.19;5025464;28;20105;-66
2023/11/22 08:27:43;;;;;;;13.65;7.47;;;;;;;-0.73;59.09;103034.03;5018409;28;20672;-66
2023/11/22 08:30:13;;;;;;;15.10;6.22;;;;;;;-0.65;58.95;103030.09;5031553;28;20511;-65
2023/11/22 08:32:40;;;;;;;13.35;6.72;;;;;;;-0.68;59.04;103034.22;5028466;28;20570;-67
2023/11/22 08:35:08;;;;;;;15.98;7.70;;;;;;;-0.73;59.24;103013.47;5029961;28;20487;-64
2023/11/22 08:37:37;;;;;;;15.10;6.80;;;;;;;-1.07;59.71;103012.03;5027433;28;20454;-65
2023/11/22 08:40:05;;;;;;;17.48;6.70;;;;;;;-0.72;59.23;103019.53;5027430;28;20104;-67
2023/11/22 08:42:32;;;;;;;17.45;7.65;;;;;;;-0.65;59.41;103013.81;5028828;28;20134;-65
2023/11/22 08:44:57;;;;;;;17.42;8.20;;;;;;;-0.62;59.54;103022.50;5024973;28;20021;-66
2023/11/22 08:47:22;;;;;;;20.58;8.35;;;;;;;-0.74;59.43;103032.28;5029417;28;20411;-67
2023/11/22 08:49:48;;;;;;;16.55;7.63;;;;;;;-1.18;61.30;103044.06;5022637;28;20598;-66
2023/11/22 08:52:14;;;;;;;15.75;7.38;;;;;;;-1.07;60.90;103050.53;5029886;28;20044;-65
2023/11/22 08:54:41;;;;;;;20.20;8.18;;;;;;;-0.65;60.30;103045.50;5025115;28;20032;-66
2023/11/22 08:57:07;;;;;;;17.52;8.85;;;;;;;-0.45;59.95;103042.88;5026024;28;20039;-66
2023/11/22 08:59:37;;;;;;;16.92;8.27;;;;;;;-0.71;59.67;103037.53;5028428;28;20041;-64
2023/11/22 09:02:04;;;;;;;14.35;7.10;;;;;;;-0.54;59.83;103037.38;5025421;28;21756;-65
2023/11/22 09:04:31;;;;;;;17.75;8.40;;;;;;;-0.60;59.84;103040.56;5027424;28;20314;-65
2023/11/22 09:06:57;;;;;;;17.30;9.10;;;;;;;-0.48;59.45;103055.59;5022783;28;20567;-65
2023/11/22 09:09:30;;;;;;;21.38;9.23;;;;;;;-0.40;59.55;103049.06;5025447;28;20040;-65
2023/11/22 09:11:59;;;;;;;17.75;8.60;;;;;;;-0.47;59.57;103054.78;5011403;28;20033;-67
2023/11/22 09:14:25;;;;;;;23.42;11.75;;;;;;;-0.00;59.54;103055.81;5017435;28;20052;-65
2023/11/22 09:16:54;;;;;;;18.17;9.50;;;;;;;0.03;58.41;103053.34;5024149;28;20033;-65
2023/11/22 09:19:24;;;;;;;20.38;9.75;;;;;;;-0.13;58.86;103039.88;5026555;28;20063;-67
2023/11/22 09:21:51;;;;;;;16.13;8.52;;;;;;;0.11;58.62;103049.38;5024735;28;20021;-66
2023/11/22 09:24:17;;;;;;;16.13;8.63;;;;;;;0.19;58.23;103045.41;5027827;28;20045;-66
2023/11/22 09:26:43;;;;;;;17.23;8.65;;;;;;;0.22;58.20;103044.66;5024742;28;20134;-65
2023/11/22 09:29:13;;;;;;;16.38;8.27;;;;;;;0.28;57.89;103043.19;5025143;28;20041;-65
2023/11/22 09:31:39;;;;;;;14.30;7.55;;;;;;;0.02;57.64;103043.88;5024885;28;20128;-63
2023/11/22 09:34:05;;;;;;;14.73;6.93;;;;;;;0.16;58.18;103041.84;5024905;28;21239;-66
2023/11/22 09:36:33;;;;;;;18.20;7.07;;;;;;;0.33;57.60;103053.66;5026520;28;20045;-63
2023/11/22 09:38:59;;;;;;;11.77;7.90;;;;;;;0.32;57.80;103048.44;5002627;28;20045;-66
2023/11/22 09:41:26;;;;;;;18.13;8.57;;;;;;;0.42;57.69;103035.09;5026082;28;20309;-65
2023/11/22 09:43:53;;;;;;;14.65;6.65;;;;;;;0.38;57.68;103046.09;5021912;28;20434;-66
2023/11/22 09:46:20;;;;;;;13.90;8.00;;;;;;;0.39;57.28;103040.13;5043200;28;20032;-63
2023/11/22 09:48:50;;;;;;;15.73;7.18;;;;;;;0.26;57.83;103026.81;5023095;28;20063;-66
2023/11/22 09:51:29;;;;;;;9.65;6.43;;;;;;;0.52;57.49;103026.03;5027950;28;20041;-66
2023/11/22 09:54:07;;;;;;;12.68;6.60;;;;;;;0.63;57.03;103027.28;5019223;28;20041;-63
2023/11/22 09:56:33;;;;;;;10.52;5.95;;;;;;;0.66;56.89;103025.72;5023971;28;20039;-65
2023/11/22 09:59:00;;;;;;;12.18;5.88;;;;;;;0.29;56.98;103038.91;5022309;28;20051;-66
2023/11/22 10:01:30;;;;;;;14.38;6.88;;;;;;;-0.58;60.08;103037.22;5016481;28;20427;-65
2023/11/22 10:03:58;;;;;;;15.23;6.20;;;;;;;-0.51;60.32;103050.34;5013895;28;20048;-65
2023/11/22 10:06:24;;;;;;;14.93;8.75;;;;;;;0.08;58.98;103054.41;5029564;28;20414;-64
2023/11/22 10:08:49;;;;;;;16.55;7.60;;;;;;;0.43;58.47;103042.88;5036216;28;20044;-64
2023/11/22 10:11:17;;;;;;;20.10;9.48;;;;;;;0.42;58.06;103038.56;5016985;28;20184;-64
2023/11/22 10:13:45;;;;;;;16.45;7.00;;;;;;;0.43;57.65;103031.69;5034268;28;20404;-66
2023/11/22 10:16:13;;;;;;;12.50;6.05;;;;;;;0.83;57.80;103028.84;5025285;28;20028;-65
2023/11/22 10:18:43;;;;;;;16.10;7.57;;;;;;;0.86;57.10;103017.81;5023687;28;20447;-65
2023/11/22 10:21:23;;;;;;;13.18;6.88;;;;;;;0.77;56.58;103017.47;5023892;28;21245;-64
2023/11/22 10:23:58;;;;;;;11.45;6.40;;;;;;;0.98;56.58;103018.22;5003969;28;20581;-64
2023/11/22 10:26:25;;;;;;;11.65;6.18;;;;;;;0.75;56.34;103017.44;5027667;28;20326;-66
2023/11/22 10:28:52;;;;;;;12.80;6.72;;;;;;;0.57;56.67;103015.09;5022568;28;20124;-64
2023/11/22 10:31:18;;;;;;;9.40;4.75;;;;;;;0.77;56.59;103007.19;5028070;28;20430;-65
2023/11/22 10:33:44;;;;;;;7.97;4.88;;;;;;;0.86;56.60;102998.09;5024475;28;20508;-65
2023/11/22 10:36:12;;;;;;;8.82;5.35;;;;;;;0.41;57.30;102994.75;5041105;28;20182;-64
2023/11/22 10:38:37;;;;;;;10.18;5.22;;;;;;;0.90;56.56;102986.19;5025422;28;20044;-65
2023/11/22 10:41:08;;;;;;;9.45;5.30;;;;;;;0.16;57.06;102981.00;5025744;28;20118;-63
2023/11/22 10:43:35;;;;;;;8.23;4.22;;;;;;;0.01;57.92;102957.28;5024220;28;20291;-64
2023/11/22 10:46:09;;;;;;;11.63;5.30;;;;;;;-0.03;57.45;102940.00;5023019;28;20582;-64
2023/11/22 10:48:36;;;;;;;15.02;4.20;;;;;;;0.59;56.02;102927.63;5026588;28;20053;-64
2023/11/22 10:51:04;;;;;;;8.93;4.30;;;;;;;0.20;56.30;102922.84;5023642;28;20247;-64
2023/11/22 10:53:34;;;;;;;10.32;4.82;;;;;;;0.64;55.43;102919.25;5027348;28;20059;-65
2023/11/22 10:56:20;;;;;;;9.18;4.93;;;;;;;0.38;55.72;102894.31;5016105;28;20257;-64
2023/11/22 10:58:55;;;;;;;8.77;4.57;;;;;;;0.78;54.98;102880.22;5016568;28;20064;-64
2023/11/22 11:01:24;;;;;;;12.43;4.50;;;;;;;1.14;54.31;102848.75;5017303;28;20082;-62
2023/11/22 11:04:05;;;;;;;9.88;4.47;;;;;;;1.46;53.32;102824.88;5024670;28;20503;-63
2023/11/22 11:06:35;;;;;;;5.63;2.73;;;;;;;1.29;52.61;102829.47;5028890;28;20596;-64
2023/11/22 11:09:11;;;;;;;6.15;3.47;;;;;;;1.30;52.64;102832.94;5021850;28;20374;-64
2023/11/22 11:11:38;;;;;;;6.43;3.30;;;;;;;1.49;51.94;102837.84;5026216;28;20581;-63
2023/11/22 11:14:06;;;;;;;7.90;4.18;;;;;;;1.52;51.74;102822.47;5021798;28;20783;-64
2023/11/22 11:16:37;;;;;;;8.35;4.10;;;;;;;1.98;50.17;102822.03;5023733;28;20095;-64
2023/11/22 11:19:04;;;;;;;7.35;2.63;;;;;;;0.75;51.81;102808.03;5019380;28;20033;-64
2023/11/22 11:21:33;;;;;;;7.93;2.75;;;;;;;1.03;51.83;102805.50;5041613;28;20036;-63